sensor_id;sensor_type;location;lat;lon;timestamp;noise_LAeq;noise_LA_min;noise_LA_max;noise_LA01;noise_LA95
64077;Laerm;51039;49.696;10.808;2023-04-01T00:01:30;41.02;39.67;42.19;;
64077;Laerm;51039;49.696;10.808;2023-04-01T00:03:55;41.05;39.77;42.20;;
64077;Laerm;51039;49.696;10.808;2023-04-01T00:06:22;41.10;39.75;42.24;;
64077;Laerm;51039;49.696;10.808;2023-04-01T00:08:48;41.18;39.97;42.40;;
64077;Laerm;51039;49.696;10.808;2023-04-01T00:11:14;41.25;39.98;42.28;;
64077;Laerm;51039;49.696;10.808;2023-04-01T00:13:40;41.35;39.80;42.36;;
64077;Laerm;51039;49.696;10.808;2023-04-01T00:16:06;41.38;39.99;42.74;;
64077;Laerm;51039;49.696;10.808;2023-04-01T00:18:32;41.37;40.13;42.53;;
64077;Laerm;51039;49.696;10.808;2023-04-01T00:20:57;41.38;39.99;42.45;;
64077;Laerm;51039;49.696;10.808;2023-04-01T00:23:22;41.39;40.11;42.48;;
64077;Laerm;51039;49.696;10.808;2023-04-01T00:25:48;41.39;40.20;42.59;;
64077;Laerm;51039;49.696;10.808;2023-04-01T00:28:18;41.39;40.27;42.63;;
64077;Laerm;51039;49.696;10.808;2023-04-01T00:30:44;41.36;39.98;42.43;;
64077;Laerm;51039;49.696;10.808;2023-04-01T00:33:10;41.35;40.16;42.56;;
64077;Laerm;51039;49.696;10.808;2023-04-01T00:35:36;41.33;40.14;42.46;;
64077;Laerm;51039;49.696;10.808;2023-04-01T00:38:02;41.36;40.22;42.53;;
64077;Laerm;51039;49.696;10.808;2023-04-01T00:42:55;41.36;40.01;42.44;;
64077;Laerm;51039;49.696;10.808;2023-04-01T00:47:56;41.37;40.10;42.59;;
64077;Laerm;51039;49.696;10.808;2023-04-01T00:50:24;41.37;40.14;42.52;;
64077;Laerm;51039;49.696;10.808;2023-04-01T00:52:52;41.36;40.06;43.27;;
64077;Laerm;51039;49.696;10.808;2023-04-01T00:55:18;41.32;40.06;42.69;;
64077;Laerm;51039;49.696;10.808;2023-04-01T00:57:45;41.33;40.11;42.88;;
64077;Laerm;51039;49.696;10.808;2023-04-01T01:00:14;41.32;39.99;45.30;;
64077;Laerm;51039;49.696;10.808;2023-04-01T01:02:45;41.33;40.17;46.31;;
64077;Laerm;51039;49.696;10.808;2023-04-01T01:05:15;41.30;40.15;42.44;;
64077;Laerm;51039;49.696;10.808;2023-04-01T01:08:06;41.29;40.15;42.39;;
64077;Laerm;51039;49.696;10.808;2023-04-01T01:10:38;41.28;39.95;42.61;;
64077;Laerm;51039;49.696;10.808;2023-04-01T01:13:13;41.30;40.16;46.58;;
64077;Laerm;51039;49.696;10.808;2023-04-01T01:18:23;41.30;40.18;44.75;;
64077;Laerm;51039;49.696;10.808;2023-04-01T01:31:37;41.48;40.22;42.66;;
64077;Laerm;51039;49.696;10.808;2023-04-01T01:34:19;41.50;40.27;42.66;;
64077;Laerm;51039;49.696;10.808;2023-04-01T01:36:50;41.52;40.14;42.72;;
64077;Laerm;51039;49.696;10.808;2023-04-01T01:39:20;41.70;40.47;58.69;;
64077;Laerm;51039;49.696;10.808;2023-04-01T01:41:51;41.63;40.45;54.97;;
64077;Laerm;51039;49.696;10.808;2023-04-01T01:44:18;41.61;40.36;54.98;;
64077;Laerm;51039;49.696;10.808;2023-04-01T01:46:45;41.70;40.30;59.57;;
64077;Laerm;51039;49.696;10.808;2023-04-01T01:49:11;41.67;40.43;47.30;;
64077;Laerm;51039;49.696;10.808;2023-04-01T01:51:39;41.70;40.44;42.99;;
64077;Laerm;51039;49.696;10.808;2023-04-01T01:54:05;41.72;40.46;44.70;;
64077;Laerm;51039;49.696;10.808;2023-04-01T01:56:30;41.77;40.32;44.75;;
64077;Laerm;51039;49.696;10.808;2023-04-01T01:59:03;41.78;40.45;42.76;;
64077;Laerm;51039;49.696;10.808;2023-04-01T02:01:34;41.80;40.66;43.04;;
64077;Laerm;51039;49.696;10.808;2023-04-01T02:04:02;41.83;40.57;43.25;;
64077;Laerm;51039;49.696;10.808;2023-04-01T02:06:33;41.86;40.74;43.23;;
64077;Laerm;51039;49.696;10.808;2023-04-01T02:09:02;41.88;40.60;43.02;;
64077;Laerm;51039;49.696;10.808;2023-04-01T02:11:48;42.01;40.63;43.19;;
64077;Laerm;51039;49.696;10.808;2023-04-01T02:14:23;42.14;40.98;43.36;;
64077;Laerm;51039;49.696;10.808;2023-04-01T02:16:58;42.14;40.83;43.23;;
64077;Laerm;51039;49.696;10.808;2023-04-01T02:19:31;42.20;40.93;43.38;;
64077;Laerm;51039;49.696;10.808;2023-04-01T02:22:00;42.25;40.86;43.34;;
64077;Laerm;51039;49.696;10.808;2023-04-01T02:24:30;42.29;41.05;43.43;;
64077;Laerm;51039;49.696;10.808;2023-04-01T02:26:56;42.31;40.97;47.34;;
64077;Laerm;51039;49.696;10.808;2023-04-01T02:29:23;42.35;40.86;49.12;;
64077;Laerm;51039;49.696;10.808;2023-04-01T02:31:53;42.38;41.09;43.81;;
64077;Laerm;51039;49.696;10.808;2023-04-01T02:34:19;42.42;41.33;43.68;;
64077;Laerm;51039;49.696;10.808;2023-04-01T02:36:47;42.43;41.16;43.57;;
64077;Laerm;51039;49.696;10.808;2023-04-01T02:39:14;42.44;41.30;43.65;;
64077;Laerm;51039;49.696;10.808;2023-04-01T02:41:43;42.45;41.19;45.69;;
64077;Laerm;51039;49.696;10.808;2023-04-01T02:44:10;42.46;41.33;45.00;;
64077;Laerm;51039;49.696;10.808;2023-04-01T02:46:36;42.45;41.27;43.72;;
64077;Laerm;51039;49.696;10.808;2023-04-01T02:49:02;42.43;41.06;43.44;;
64077;Laerm;51039;49.696;10.808;2023-04-01T02:51:27;42.44;41.20;43.64;;
64077;Laerm;51039;49.696;10.808;2023-04-01T02:53:53;42.43;41.10;43.66;;
64077;Laerm;51039;49.696;10.808;2023-04-01T02:56:18;42.44;41.15;43.55;;
64077;Laerm;51039;49.696;10.808;2023-04-01T02:58:45;42.44;41.24;43.55;;
64077;Laerm;51039;49.696;10.808;2023-04-01T03:01:10;42.46;41.19;43.94;;
64077;Laerm;51039;49.696;10.808;2023-04-01T03:03:36;42.45;41.19;43.53;;
64077;Laerm;51039;49.696;10.808;2023-04-01T03:06:10;42.44;41.05;43.63;;
64077;Laerm;51039;49.696;10.808;2023-04-01T03:08:36;42.46;41.28;43.64;;
64077;Laerm;51039;49.696;10.808;2023-04-01T03:11:01;42.51;41.28;52.92;;
64077;Laerm;51039;49.696;10.808;2023-04-01T03:13:27;42.57;41.27;50.67;;
64077;Laerm;51039;49.696;10.808;2023-04-01T03:15:52;42.52;41.35;44.53;;
64077;Laerm;51039;49.696;10.808;2023-04-01T03:18:18;42.50;41.36;45.97;;
64077;Laerm;51039;49.696;10.808;2023-04-01T03:20:43;42.67;41.16;51.85;;
64077;Laerm;51039;49.696;10.808;2023-04-01T03:23:09;42.68;41.39;49.87;;
64077;Laerm;51039;49.696;10.808;2023-04-01T03:25:34;42.55;41.28;50.85;;
64077;Laerm;51039;49.696;10.808;2023-04-01T03:27:59;42.50;41.11;48.28;;
64077;Laerm;51039;49.696;10.808;2023-04-01T03:30:25;42.49;41.31;43.94;;
64077;Laerm;51039;49.696;10.808;2023-04-01T03:32:51;42.79;41.29;59.65;;
64077;Laerm;51039;49.696;10.808;2023-04-01T03:35:17;42.51;41.04;43.60;;
64077;Laerm;51039;49.696;10.808;2023-04-01T03:37:42;42.50;41.28;43.67;;
64077;Laerm;51039;49.696;10.808;2023-04-01T03:40:08;42.55;41.32;46.78;;
64077;Laerm;51039;49.696;10.808;2023-04-01T03:42:34;42.53;41.15;45.91;;
64077;Laerm;51039;49.696;10.808;2023-04-01T03:45:00;42.54;41.16;48.63;;
64077;Laerm;51039;49.696;10.808;2023-04-01T03:47:26;42.55;41.38;44.28;;
64077;Laerm;51039;49.696;10.808;2023-04-01T03:49:51;42.60;41.31;55.57;;
64077;Laerm;51039;49.696;10.808;2023-04-01T03:52:16;42.58;41.37;43.67;;
64077;Laerm;51039;49.696;10.808;2023-04-01T03:54:41;42.57;41.20;43.70;;
64077;Laerm;51039;49.696;10.808;2023-04-01T03:57:07;42.59;41.42;43.75;;
64077;Laerm;51039;49.696;10.808;2023-04-01T03:59:32;42.59;41.42;43.62;;
64077;Laerm;51039;49.696;10.808;2023-04-01T04:01:58;42.59;41.35;43.71;;
64077;Laerm;51039;49.696;10.808;2023-04-01T04:04:23;42.62;41.36;43.89;;
64077;Laerm;51039;49.696;10.808;2023-04-01T04:06:48;42.62;41.34;43.74;;
64077;Laerm;51039;49.696;10.808;2023-04-01T04:09:14;42.64;41.42;44.02;;
64077;Laerm;51039;49.696;10.808;2023-04-01T04:11:39;42.63;41.42;43.78;;
64077;Laerm;51039;49.696;10.808;2023-04-01T04:14:05;42.59;41.38;43.84;;
64077;Laerm;51039;49.696;10.808;2023-04-01T04:16:30;42.54;41.32;43.63;;
64077;Laerm;51039;49.696;10.808;2023-04-01T04:18:55;42.50;41.24;43.58;;
64077;Laerm;51039;49.696;10.808;2023-04-01T04:21:21;42.46;41.19;43.72;;
64077;Laerm;51039;49.696;10.808;2023-04-01T04:23:46;42.41;41.23;43.46;;
64077;Laerm;51039;49.696;10.808;2023-04-01T04:26:13;42.35;40.93;43.46;;
64077;Laerm;51039;49.696;10.808;2023-04-01T04:28:39;42.23;41.09;43.60;;
64077;Laerm;51039;49.696;10.808;2023-04-01T04:31:05;96.34;-328.31;113.67;;
64077;Laerm;51039;49.696;10.808;2023-04-01T04:33:32;85.89;-223.35;112.42;;
64077;Laerm;51039;49.696;10.808;2023-04-01T04:35:59;73.76;40.83;107.41;;
64077;Laerm;51039;49.696;10.808;2023-04-01T04:38:25;81.94;16.96;111.69;;
64077;Laerm;51039;49.696;10.808;2023-04-01T04:40:51;90.81;9.95;113.34;;
64077;Laerm;51039;49.696;10.808;2023-04-01T04:43:17;71.61;40.22;104.15;;
64077;Laerm;51039;49.696;10.808;2023-04-01T04:45:43;41.66;40.43;43.23;;
64077;Laerm;51039;49.696;10.808;2023-04-01T04:48:11;93.95;-45.22;113.27;;
64077;Laerm;51039;49.696;10.808;2023-04-01T04:50:41;88.86;3.71;113.31;;
64077;Laerm;51039;49.696;10.808;2023-04-01T04:53:06;69.85;-50.53;106.04;;
64077;Laerm;51039;49.696;10.808;2023-04-01T04:55:31;41.75;40.35;43.65;;
64077;Laerm;51039;49.696;10.808;2023-04-01T04:57:57;61.85;40.51;91.15;;
64077;Laerm;51039;49.696;10.808;2023-04-01T05:00:22;97.15;40.62;113.81;;
64077;Laerm;51039;49.696;10.808;2023-04-01T05:02:47;101.74;40.68;113.94;;
64077;Laerm;51039;49.696;10.808;2023-04-01T05:05:13;79.48;10.43;110.02;;
64077;Laerm;51039;49.696;10.808;2023-04-01T05:07:38;41.88;40.77;42.91;;
64077;Laerm;51039;49.696;10.808;2023-04-01T05:10:03;104.27;5.44;114.05;;
64077;Laerm;51039;49.696;10.808;2023-04-01T05:12:29;106.54;41.10;114.00;;
64077;Laerm;51039;49.696;10.808;2023-04-01T05:14:54;111.58;50.61;114.10;;
64077;Laerm;51039;49.696;10.808;2023-04-01T05:17:20;110.76;30.82;114.01;;
64077;Laerm;51039;49.696;10.808;2023-04-01T05:19:45;104.77;-329.56;113.60;;
64077;Laerm;51039;49.696;10.808;2023-04-01T05:22:10;41.87;40.64;43.06;;
64077;Laerm;51039;49.696;10.808;2023-04-01T05:24:36;41.88;40.35;42.98;;
64077;Laerm;51039;49.696;10.808;2023-04-01T05:27:01;41.88;40.43;42.88;;
64077;Laerm;51039;49.696;10.808;2023-04-01T05:29:27;41.87;40.48;42.89;;
64077;Laerm;51039;49.696;10.808;2023-04-01T05:31:52;41.87;40.61;43.16;;
64077;Laerm;51039;49.696;10.808;2023-04-01T05:34:17;41.89;40.83;43.11;;
64077;Laerm;51039;49.696;10.808;2023-04-01T05:36:43;41.92;40.77;43.28;;
64077;Laerm;51039;49.696;10.808;2023-04-01T05:39:09;41.92;40.67;43.05;;
64077;Laerm;51039;49.696;10.808;2023-04-01T05:41:36;41.95;40.79;43.07;;
64077;Laerm;51039;49.696;10.808;2023-04-01T05:44:01;41.98;40.86;43.10;;
64077;Laerm;51039;49.696;10.808;2023-04-01T05:46:27;42.04;40.84;44.89;;
64077;Laerm;51039;49.696;10.808;2023-04-01T05:48:52;42.02;40.84;43.20;;
64077;Laerm;51039;49.696;10.808;2023-04-01T05:51:18;42.04;40.86;43.20;;
64077;Laerm;51039;49.696;10.808;2023-04-01T05:53:43;42.04;40.93;43.09;;
64077;Laerm;51039;49.696;10.808;2023-04-01T05:56:08;42.08;40.95;43.41;;
64077;Laerm;51039;49.696;10.808;2023-04-01T05:58:37;42.10;40.87;43.19;;
64077;Laerm;51039;49.696;10.808;2023-04-01T06:01:04;42.10;40.74;43.27;;
64077;Laerm;51039;49.696;10.808;2023-04-01T06:03:30;42.12;40.78;43.70;;
64077;Laerm;51039;49.696;10.808;2023-04-01T06:05:55;42.15;40.63;45.71;;
64077;Laerm;51039;49.696;10.808;2023-04-01T06:08:20;42.20;40.96;43.78;;
64077;Laerm;51039;49.696;10.808;2023-04-01T06:23:07;42.35;41.28;43.61;;
64077;Laerm;51039;49.696;10.808;2023-04-01T06:25:59;42.44;41.22;46.78;;
64077;Laerm;51039;49.696;10.808;2023-04-01T06:37:15;42.44;41.20;43.59;;
64077;Laerm;51039;49.696;10.808;2023-04-01T06:45:32;42.46;41.31;43.50;;
64077;Laerm;51039;49.696;10.808;2023-04-01T06:50:44;42.46;41.07;43.70;;
64077;Laerm;51039;49.696;10.808;2023-04-01T06:53:28;42.46;41.15;43.49;;
64077;Laerm;51039;49.696;10.808;2023-04-01T06:56:06;42.50;40.99;43.67;;
64077;Laerm;51039;49.696;10.808;2023-04-01T06:58:50;42.50;41.21;43.77;;
64077;Laerm;51039;49.696;10.808;2023-04-01T07:01:25;43.84;41.23;56.38;;
64077;Laerm;51039;49.696;10.808;2023-04-01T07:03:59;42.83;41.53;49.95;;
64077;Laerm;51039;49.696;10.808;2023-04-01T07:06:32;42.82;41.33;50.81;;
64077;Laerm;51039;49.696;10.808;2023-04-01T07:09:06;42.78;41.59;47.27;;
64077;Laerm;51039;49.696;10.808;2023-04-01T07:11:37;43.39;41.56;51.42;;
64077;Laerm;51039;49.696;10.808;2023-04-01T07:14:10;43.13;41.73;48.47;;
64077;Laerm;51039;49.696;10.808;2023-04-01T07:17:01;43.10;41.58;47.70;;
64077;Laerm;51039;49.696;10.808;2023-04-01T07:19:45;43.12;41.72;46.60;;
64077;Laerm;51039;49.696;10.808;2023-04-01T07:22:31;43.18;41.55;46.08;;
64077;Laerm;51039;49.696;10.808;2023-04-01T07:25:03;43.12;41.46;45.20;;
64077;Laerm;51039;49.696;10.808;2023-04-01T07:27:30;43.17;41.84;45.53;;
64077;Laerm;51039;49.696;10.808;2023-04-01T07:29:56;43.21;41.73;45.22;;
64077;Laerm;51039;49.696;10.808;2023-04-01T07:32:42;43.31;41.93;47.20;;
64077;Laerm;51039;49.696;10.808;2023-04-01T07:35:20;43.21;41.72;45.44;;
64077;Laerm;51039;49.696;10.808;2023-04-01T07:38:08;43.33;42.03;46.05;;
64077;Laerm;51039;49.696;10.808;2023-04-01T07:43:25;43.58;42.11;47.49;;
64077;Laerm;51039;49.696;10.808;2023-04-01T07:49:04;43.57;42.05;47.29;;
64077;Laerm;51039;49.696;10.808;2023-04-01T07:51:53;43.63;42.07;55.43;;
64077;Laerm;51039;49.696;10.808;2023-04-01T08:05:25;43.56;42.09;50.23;;
64077;Laerm;51039;49.696;10.808;2023-04-01T08:14:20;43.36;41.69;46.86;;
64077;Laerm;51039;49.696;10.808;2023-04-01T08:16:56;43.42;41.69;46.65;;
64077;Laerm;51039;49.696;10.808;2023-04-01T08:20:07;43.17;41.87;47.11;;
64077;Laerm;51039;49.696;10.808;2023-04-01T08:22:42;43.16;41.91;46.29;;
64077;Laerm;51039;49.696;10.808;2023-04-01T08:25:17;43.11;41.59;45.41;;
64077;Laerm;51039;49.696;10.808;2023-04-01T08:27:48;43.11;41.72;45.74;;
64077;Laerm;51039;49.696;10.808;2023-04-01T08:30:23;43.20;41.86;56.65;;
64077;Laerm;51039;49.696;10.808;2023-04-01T08:33:04;43.07;41.78;44.53;;
64077;Laerm;51039;49.696;10.808;2023-04-01T08:35:34;43.06;41.86;45.65;;
64077;Laerm;51039;49.696;10.808;2023-04-01T08:38:11;43.05;41.66;44.59;;
64077;Laerm;51039;49.696;10.808;2023-04-01T08:40:56;41.76;37.99;44.62;;
64077;Laerm;51039;49.696;10.808;2023-04-01T08:49:22;36.37;35.19;37.37;;
64077;Laerm;51039;49.696;10.808;2023-04-01T08:59:35;41.32;40.10;44.93;;
64077;Laerm;51039;49.696;10.808;2023-04-01T09:02:39;41.55;40.25;42.76;;
64077;Laerm;51039;49.696;10.808;2023-04-01T09:05:48;41.50;40.28;44.35;;
64077;Laerm;51039;49.696;10.808;2023-04-01T09:08:59;41.31;40.09;42.57;;
64077;Laerm;51039;49.696;10.808;2023-04-01T09:11:58;41.14;40.03;42.48;;
64077;Laerm;51039;49.696;10.808;2023-04-01T09:20:39;41.97;40.88;42.97;;
64077;Laerm;51039;49.696;10.808;2023-04-01T09:23:29;42.15;40.76;43.51;;
64077;Laerm;51039;49.696;10.808;2023-04-01T09:37:41;42.23;41.00;43.33;;
64077;Laerm;51039;49.696;10.808;2023-04-01T09:42:54;42.17;40.87;43.43;;
64077;Laerm;51039;49.696;10.808;2023-04-01T09:45:42;42.22;40.98;43.42;;
64077;Laerm;51039;49.696;10.808;2023-04-01T09:48:18;42.16;40.96;43.47;;
64077;Laerm;51039;49.696;10.808;2023-04-01T09:51:17;42.14;40.96;43.22;;
64077;Laerm;51039;49.696;10.808;2023-04-01T09:53:59;42.28;41.03;43.48;;
64077;Laerm;51039;49.696;10.808;2023-04-01T10:19:03;40.32;38.94;41.36;;
64077;Laerm;51039;49.696;10.808;2023-04-01T10:27:12;40.68;39.39;41.97;;
64077;Laerm;51039;49.696;10.808;2023-04-01T11:01:01;39.89;38.50;41.08;;
64077;Laerm;51039;49.696;10.808;2023-04-01T11:15:06;41.16;39.99;42.23;;
64077;Laerm;51039;49.696;10.808;2023-04-01T11:21:02;41.38;40.06;42.71;;
64077;Laerm;51039;49.696;10.808;2023-04-01T11:23:40;41.35;39.95;42.62;;
64077;Laerm;51039;49.696;10.808;2023-04-01T11:26:30;41.25;40.11;42.38;;
64077;Laerm;51039;49.696;10.808;2023-04-01T11:29:07;41.39;40.22;42.68;;
64077;Laerm;51039;49.696;10.808;2023-04-01T11:35:12;41.11;39.87;42.27;;
64077;Laerm;51039;49.696;10.808;2023-04-01T11:41:02;40.96;39.65;42.10;;
64077;Laerm;51039;49.696;10.808;2023-04-01T11:44:09;40.74;39.62;41.99;;
64077;Laerm;51039;49.696;10.808;2023-04-01T11:46:49;40.42;39.12;41.60;;
64077;Laerm;51039;49.696;10.808;2023-04-01T11:52:26;40.21;39.00;41.77;;
64077;Laerm;51039;49.696;10.808;2023-04-01T11:55:31;40.26;39.11;41.38;;
64077;Laerm;51039;49.696;10.808;2023-04-01T11:58:25;40.21;38.68;41.59;;
64077;Laerm;51039;49.696;10.808;2023-04-01T12:12:32;39.58;38.37;40.65;;
64077;Laerm;51039;49.696;10.808;2023-04-01T12:15:26;39.95;38.79;41.33;;
64077;Laerm;51039;49.696;10.808;2023-04-01T12:18:13;40.05;38.82;41.21;;
64077;Laerm;51039;49.696;10.808;2023-04-01T12:23:55;39.87;38.59;41.07;;
64077;Laerm;51039;49.696;10.808;2023-04-01T12:29:28;39.74;38.31;41.11;;
64077;Laerm;51039;49.696;10.808;2023-04-01T12:32:31;39.23;37.99;40.84;;
64077;Laerm;51039;49.696;10.808;2023-04-01T12:42:54;40.30;39.03;41.87;;
64077;Laerm;51039;49.696;10.808;2023-04-01T12:48:34;92.70;-324.33;112.93;;
64077;Laerm;51039;49.696;10.808;2023-04-01T12:51:21;41.24;5.00;70.19;;
64077;Laerm;51039;49.696;10.808;2023-04-01T12:57:27;40.42;39.23;43.62;;
64077;Laerm;51039;49.696;10.808;2023-04-01T12:59:51;40.47;39.25;44.98;;
64077;Laerm;51039;49.696;10.808;2023-04-01T13:02:34;40.57;39.30;41.73;;
64077;Laerm;51039;49.696;10.808;2023-04-01T13:15:40;39.14;37.89;40.34;;
64077;Laerm;51039;49.696;10.808;2023-04-01T13:18:11;39.63;38.53;40.65;;
64077;Laerm;51039;49.696;10.808;2023-04-01T13:26:39;39.78;38.69;40.96;;
64077;Laerm;51039;49.696;10.808;2023-04-01T13:29:14;39.91;38.74;41.05;;
64077;Laerm;51039;49.696;10.808;2023-04-01T13:37:52;39.26;37.76;40.52;;
64077;Laerm;51039;49.696;10.808;2023-04-01T13:42:57;39.32;38.09;40.58;;
64077;Laerm;51039;49.696;10.808;2023-04-01T13:45:33;39.30;37.85;40.64;;
64077;Laerm;51039;49.696;10.808;2023-04-01T14:01:41;39.11;37.82;40.84;;
64077;Laerm;51039;49.696;10.808;2023-04-01T14:13:10;37.34;35.90;38.86;;
64077;Laerm;51039;49.696;10.808;2023-04-01T14:15:57;36.50;35.15;37.83;;
64077;Laerm;51039;49.696;10.808;2023-04-01T14:21:20;35.79;34.54;36.90;;
64077;Laerm;51039;49.696;10.808;2023-04-01T14:26:30;35.44;34.40;36.66;;
64077;Laerm;51039;49.696;10.808;2023-04-01T14:29:10;35.29;34.04;36.55;;
64077;Laerm;51039;49.696;10.808;2023-04-01T14:31:57;35.17;34.08;36.26;;
64077;Laerm;51039;49.696;10.808;2023-04-01T14:37:23;35.23;34.01;36.89;;
64077;Laerm;51039;49.696;10.808;2023-04-01T14:40:12;35.79;34.47;37.09;;
64077;Laerm;51039;49.696;10.808;2023-04-01T14:43:04;36.57;35.11;37.86;;
64077;Laerm;51039;49.696;10.808;2023-04-01T14:45:46;37.22;35.85;38.44;;
64077;Laerm;51039;49.696;10.808;2023-04-01T14:50:54;38.61;37.09;39.91;;
64077;Laerm;51039;49.696;10.808;2023-04-01T14:55:55;39.59;38.21;40.76;;
64077;Laerm;51039;49.696;10.808;2023-04-01T14:58:23;37.91;36.02;39.79;;
64077;Laerm;51039;49.696;10.808;2023-04-01T15:24:21;39.17;37.42;40.72;;
64077;Laerm;51039;49.696;10.808;2023-04-01T15:27:24;39.58;38.00;41.09;;
64077;Laerm;51039;49.696;10.808;2023-04-01T15:30:06;38.87;37.55;40.06;;
64077;Laerm;51039;49.696;10.808;2023-04-01T15:35:43;39.60;38.41;40.69;;
64077;Laerm;51039;49.696;10.808;2023-04-01T15:38:34;39.52;38.38;40.63;;
64077;Laerm;51039;49.696;10.808;2023-04-01T15:41:14;39.40;38.08;40.63;;
64077;Laerm;51039;49.696;10.808;2023-04-01T15:43:49;39.24;37.98;40.43;;
64077;Laerm;51039;49.696;10.808;2023-04-01T15:46:30;39.17;38.05;40.38;;
64077;Laerm;51039;49.696;10.808;2023-04-01T15:49:12;39.33;38.09;40.47;;
64077;Laerm;51039;49.696;10.808;2023-04-01T15:51:48;39.38;37.96;40.67;;
64077;Laerm;51039;49.696;10.808;2023-04-01T15:54:27;39.03;37.83;40.25;;
64077;Laerm;51039;49.696;10.808;2023-04-01T16:00:11;38.53;37.07;39.71;;
64077;Laerm;51039;49.696;10.808;2023-04-01T16:03:00;38.47;37.32;40.00;;
64077;Laerm;51039;49.696;10.808;2023-04-01T16:14:03;39.30;37.99;40.44;;
64077;Laerm;51039;49.696;10.808;2023-04-01T16:16:49;39.33;38.06;40.47;;
64077;Laerm;51039;49.696;10.808;2023-04-01T16:19:45;39.38;38.15;40.55;;
64077;Laerm;51039;49.696;10.808;2023-04-01T16:25:29;39.56;38.26;40.61;;
64077;Laerm;51039;49.696;10.808;2023-04-01T16:31:09;39.37;38.16;40.47;;
64077;Laerm;51039;49.696;10.808;2023-04-01T16:33:47;39.21;37.93;40.34;;
64077;Laerm;51039;49.696;10.808;2023-04-01T16:36:35;39.33;38.02;40.44;;
64077;Laerm;51039;49.696;10.808;2023-04-01T16:44:48;39.55;38.45;40.86;;
64077;Laerm;51039;49.696;10.808;2023-04-01T16:47:26;39.53;38.37;40.72;;
64077;Laerm;51039;49.696;10.808;2023-04-01T16:50:07;39.59;38.42;40.92;;
64077;Laerm;51039;49.696;10.808;2023-04-01T16:55:18;39.56;38.24;40.82;;
64077;Laerm;51039;49.696;10.808;2023-04-01T16:58:05;39.57;38.38;40.74;;
64077;Laerm;51039;49.696;10.808;2023-04-01T17:00:41;39.71;38.60;40.99;;
64077;Laerm;51039;49.696;10.808;2023-04-01T17:03:27;39.78;38.53;40.94;;
64077;Laerm;51039;49.696;10.808;2023-04-01T17:06:07;39.83;38.31;40.98;;
64077;Laerm;51039;49.696;10.808;2023-04-01T17:08:50;39.90;38.69;40.99;;
64077;Laerm;51039;49.696;10.808;2023-04-01T17:11:24;39.98;38.74;41.25;;
64077;Laerm;51039;49.696;10.808;2023-04-01T17:14:08;39.98;38.61;41.23;;
64077;Laerm;51039;49.696;10.808;2023-04-01T17:17:01;39.92;38.58;41.04;;
64077;Laerm;51039;49.696;10.808;2023-04-01T17:30:49;40.02;38.57;41.19;;
64077;Laerm;51039;49.696;10.808;2023-04-01T17:43:51;39.99;38.81;41.44;;
64077;Laerm;51039;49.696;10.808;2023-04-01T17:49:11;39.94;38.66;41.15;;
64077;Laerm;51039;49.696;10.808;2023-04-01T17:51:49;39.83;38.38;40.99;;
64077;Laerm;51039;49.696;10.808;2023-04-01T17:59:39;39.94;38.58;41.14;;
64077;Laerm;51039;49.696;10.808;2023-04-01T18:05:26;40.01;38.86;41.14;;
64077;Laerm;51039;49.696;10.808;2023-04-01T18:10:53;40.01;38.94;41.15;;
64077;Laerm;51039;49.696;10.808;2023-04-01T18:18:53;40.09;38.98;41.30;;
64077;Laerm;51039;49.696;10.808;2023-04-01T18:21:36;40.13;38.85;41.16;;
64077;Laerm;51039;49.696;10.808;2023-04-01T18:24:17;40.17;38.85;41.24;;
64077;Laerm;51039;49.696;10.808;2023-04-01T18:26:49;40.17;38.85;41.25;;
64077;Laerm;51039;49.696;10.808;2023-04-01T18:31:48;40.19;38.69;41.36;;
64077;Laerm;51039;49.696;10.808;2023-04-01T18:34:20;40.18;38.78;41.38;;
64077;Laerm;51039;49.696;10.808;2023-04-01T18:37:00;40.13;38.85;41.15;;
64077;Laerm;51039;49.696;10.808;2023-04-01T18:39:37;40.10;39.01;41.17;;
64077;Laerm;51039;49.696;10.808;2023-04-01T18:44:51;40.09;38.88;41.32;;
64077;Laerm;51039;49.696;10.808;2023-04-01T18:47:36;40.08;38.91;41.19;;
64077;Laerm;51039;49.696;10.808;2023-04-01T18:50:38;40.09;38.82;41.22;;
64077;Laerm;51039;49.696;10.808;2023-04-01T18:59:17;39.88;38.64;41.16;;
64077;Laerm;51039;49.696;10.808;2023-04-01T19:04:50;39.88;38.36;41.05;;
64077;Laerm;51039;49.696;10.808;2023-04-01T19:07:42;39.82;38.44;40.90;;
64077;Laerm;51039;49.696;10.808;2023-04-01T19:15:37;39.67;38.35;40.83;;
64077;Laerm;51039;49.696;10.808;2023-04-01T19:21:16;39.50;38.07;40.75;;
64077;Laerm;51039;49.696;10.808;2023-04-01T19:26:47;39.53;38.30;40.79;;
64077;Laerm;51039;49.696;10.808;2023-04-01T19:31:51;39.55;38.24;40.84;;
64077;Laerm;51039;49.696;10.808;2023-04-01T19:37:11;39.57;38.37;40.89;;
64077;Laerm;51039;49.696;10.808;2023-04-01T19:39:54;39.59;38.23;40.69;;
64077;Laerm;51039;49.696;10.808;2023-04-01T19:45:46;39.66;38.31;40.92;;
64077;Laerm;51039;49.696;10.808;2023-04-01T19:50:54;39.76;38.71;41.15;;
64077;Laerm;51039;49.696;10.808;2023-04-01T19:58:41;39.89;38.57;41.00;;
64077;Laerm;51039;49.696;10.808;2023-04-01T20:01:17;39.84;38.56;41.02;;
64077;Laerm;51039;49.696;10.808;2023-04-01T20:03:54;39.89;38.50;41.13;;
64077;Laerm;51039;49.696;10.808;2023-04-01T20:06:39;39.94;38.82;40.99;;
64077;Laerm;51039;49.696;10.808;2023-04-01T20:14:50;40.09;38.88;41.25;;
64077;Laerm;51039;49.696;10.808;2023-04-01T20:20:26;40.13;39.01;41.26;;
64077;Laerm;51039;49.696;10.808;2023-04-01T20:23:05;40.15;38.91;41.43;;
64077;Laerm;51039;49.696;10.808;2023-04-01T20:33:48;40.13;38.90;41.23;;
64077;Laerm;51039;49.696;10.808;2023-04-01T20:36:58;40.15;38.84;41.22;;
64077;Laerm;51039;49.696;10.808;2023-04-01T20:42:34;40.18;38.98;41.42;;
64077;Laerm;51039;49.696;10.808;2023-04-01T20:50:48;40.21;38.90;41.29;;
64077;Laerm;51039;49.696;10.808;2023-04-01T20:53:20;40.25;38.92;46.54;;
64077;Laerm;51039;49.696;10.808;2023-04-01T20:56:11;40.28;39.08;44.32;;
64077;Laerm;51039;49.696;10.808;2023-04-01T20:59:03;40.31;39.10;43.85;;
64077;Laerm;51039;49.696;10.808;2023-04-01T21:01:51;40.30;39.16;43.00;;
64077;Laerm;51039;49.696;10.808;2023-04-01T21:07:20;40.24;39.05;41.57;;
64077;Laerm;51039;49.696;10.808;2023-04-01T21:13:27;40.23;38.95;41.71;;
64077;Laerm;51039;49.696;10.808;2023-04-01T21:15:47;40.20;39.00;41.27;;
64077;Laerm;51039;49.696;10.808;2023-04-01T21:32:36;40.26;39.00;41.36;;
64077;Laerm;51039;49.696;10.808;2023-04-01T21:36:09;40.24;38.85;41.36;;
64077;Laerm;51039;49.696;10.808;2023-04-01T21:41:21;40.09;38.89;41.53;;
64077;Laerm;51039;49.696;10.808;2023-04-01T21:49:36;39.54;38.17;41.53;;
64077;Laerm;51039;49.696;10.808;2023-04-01T21:52:24;39.70;38.34;40.74;;
64077;Laerm;51039;49.696;10.808;2023-04-01T22:05:45;39.84;38.76;41.22;;
64077;Laerm;51039;49.696;10.808;2023-04-01T22:11:19;39.80;38.30;40.95;;
64077;Laerm;51039;49.696;10.808;2023-04-01T22:13:50;39.77;38.48;41.06;;
64077;Laerm;51039;49.696;10.808;2023-04-01T22:19:23;39.66;38.42;40.71;;